sensor_id;sensor_type;location;lat;lon;timestamp;pressure;altitude;pressure_sealevel;temperature;humidity
7668;BME280;3876;42.204;24.686;2024-03-29T00:00:56;99107.41;;;14.24;64.10
7668;BME280;3876;42.204;24.686;2024-03-29T00:03:22;99111.72;;;14.24;63.77
7668;BME280;3876;42.204;24.686;2024-03-29T00:05:48;99105.69;;;14.25;63.99
7668;BME280;3876;42.204;24.686;2024-03-29T00:08:13;99110.69;;;14.28;63.84
7668;BME280;3876;42.204;24.686;2024-03-29T00:10:39;99116.81;;;14.25;64.18
7668;BME280;3876;42.204;24.686;2024-03-29T00:13:06;99119.25;;;14.11;63.87
7668;BME280;3876;42.204;24.686;2024-03-29T00:15:32;99115.88;;;14.09;64.05
7668;BME280;3876;42.204;24.686;2024-03-29T00:17:58;99119.00;;;13.98;64.49
7668;BME280;3876;42.204;24.686;2024-03-29T00:20:24;99121.78;;;13.94;64.57
7668;BME280;3876;42.204;24.686;2024-03-29T00:22:50;99117.09;;;13.85;65.23
7668;BME280;3876;42.204;24.686;2024-03-29T00:25:15;99122.69;;;13.76;65.93
7668;BME280;3876;42.204;24.686;2024-03-29T00:27:41;99124.78;;;13.67;65.39
7668;BME280;3876;42.204;24.686;2024-03-29T00:30:09;99131.09;;;13.60;66.42
7668;BME280;3876;42.204;24.686;2024-03-29T00:32:36;99123.22;;;13.46;66.71
7668;BME280;3876;42.204;24.686;2024-03-29T00:35:02;99131.22;;;13.40;66.82
7668;BME280;3876;42.204;24.686;2024-03-29T00:37:28;99121.06;;;13.37;66.85
7668;BME280;3876;42.204;24.686;2024-03-29T00:39:53;99119.66;;;13.30;67.46
7668;BME280;3876;42.204;24.686;2024-03-29T00:42:19;99128.69;;;13.39;67.63
7668;BME280;3876;42.204;24.686;2024-03-29T00:44:45;99131.06;;;13.43;67.76
7668;BME280;3876;42.204;24.686;2024-03-29T00:47:12;99127.44;;;13.47;67.20
7668;BME280;3876;42.204;24.686;2024-03-29T00:49:39;99126.38;;;13.51;66.87
7668;BME280;3876;42.204;24.686;2024-03-29T00:52:04;99121.88;;;13.56;67.13
7668;BME280;3876;42.204;24.686;2024-03-29T00:54:31;99128.53;;;13.60;67.23
7668;BME280;3876;42.204;24.686;2024-03-29T00:56:57;99122.47;;;13.61;67.45
7668;BME280;3876;42.204;24.686;2024-03-29T00:59:23;99121.59;;;13.62;67.69
7668;BME280;3876;42.204;24.686;2024-03-29T01:01:49;99124.91;;;13.64;67.85
7668;BME280;3876;42.204;24.686;2024-03-29T01:04:16;99124.91;;;13.64;68.09
7668;BME280;3876;42.204;24.686;2024-03-29T01:06:42;99121.59;;;13.62;67.96
7668;BME280;3876;42.204;24.686;2024-03-29T01:09:08;99124.91;;;13.64;68.15
7668;BME280;3876;42.204;24.686;2024-03-29T01:11:34;99124.91;;;13.64;67.87
7668;BME280;3876;42.204;24.686;2024-03-29T01:14:00;99130.22;;;13.61;68.18
7668;BME280;3876;42.204;24.686;2024-03-29T01:16:26;99136.53;;;13.54;67.76
7668;BME280;3876;42.204;24.686;2024-03-29T01:18:51;99136.78;;;13.50;68.50
7668;BME280;3876;42.204;24.686;2024-03-29T01:21:18;99140.88;;;13.35;67.80
7668;BME280;3876;42.204;24.686;2024-03-29T01:23:44;99138.59;;;13.29;68.41
7668;BME280;3876;42.204;24.686;2024-03-29T01:26:10;99133.84;;;13.20;68.61
7668;BME280;3876;42.204;24.686;2024-03-29T01:28:36;99139.00;;;13.20;68.18
7668;BME280;3876;42.204;24.686;2024-03-29T01:31:02;99135.66;;;13.18;68.67
7668;BME280;3876;42.204;24.686;2024-03-29T01:33:28;99135.53;;;13.21;68.24
7668;BME280;3876;42.204;24.686;2024-03-29T01:35:54;99140.41;;;13.27;67.98
7668;BME280;3876;42.204;24.686;2024-03-29T01:38:21;99143.44;;;13.35;67.48
7668;BME280;3876;42.204;24.686;2024-03-29T01:40:47;99143.44;;;13.35;67.49
7668;BME280;3876;42.204;24.686;2024-03-29T01:43:13;99139.13;;;13.36;67.60
7668;BME280;3876;42.204;24.686;2024-03-29T01:45:39;99141.81;;;13.34;67.77
7668;BME280;3876;42.204;24.686;2024-03-29T01:48:08;99143.44;;;13.35;67.47
7668;BME280;3876;42.204;24.686;2024-03-29T01:50:36;99147.06;;;13.31;68.21
7668;BME280;3876;42.204;24.686;2024-03-29T01:53:05;99151.59;;;13.26;68.30
7668;BME280;3876;42.204;24.686;2024-03-29T01:55:35;99162.09;;;13.22;68.72
7668;BME280;3876;42.204;24.686;2024-03-29T01:58:02;99163.19;;;13.16;68.51
7668;BME280;3876;42.204;24.686;2024-03-29T02:00:30;99166.00;;;13.11;68.56
7668;BME280;3876;42.204;24.686;2024-03-29T02:02:58;99161.78;;;13.09;69.00
7668;BME280;3876;42.204;24.686;2024-03-29T02:05:26;99171.50;;;13.02;68.93
7668;BME280;3876;42.204;24.686;2024-03-29T02:07:53;99173.50;;;12.96;69.59
7668;BME280;3876;42.204;24.686;2024-03-29T02:10:22;99186.50;;;12.93;69.81
7668;BME280;3876;42.204;24.686;2024-03-29T02:12:50;99176.84;;;12.78;69.91
7668;BME280;3876;42.204;24.686;2024-03-29T02:15:16;99182.63;;;12.83;70.20
7668;BME280;3876;42.204;24.686;2024-03-29T02:17:43;99192.16;;;12.81;69.88
7668;BME280;3876;42.204;24.686;2024-03-29T02:20:10;99194.94;;;12.76;69.93
7668;BME280;3876;42.204;24.686;2024-03-29T02:22:45;99193.31;;;12.74;70.01
7668;BME280;3876;42.204;24.686;2024-03-29T02:25:14;99189.84;;;12.75;69.78
7668;BME280;3876;42.204;24.686;2024-03-29T02:27:42;99188.97;;;12.76;69.87
7668;BME280;3876;42.204;24.686;2024-03-29T02:30:13;99198.19;;;12.80;69.75
7668;BME280;3876;42.204;24.686;2024-03-29T02:32:40;99192.44;;;12.75;69.89
7668;BME280;3876;42.204;24.686;2024-03-29T02:35:07;99205.72;;;12.84;69.94
7668;BME280;3876;42.204;24.686;2024-03-29T02:37:35;99208.25;;;12.86;69.69
7668;BME280;3876;42.204;24.686;2024-03-29T02:40:02;99212.34;;;12.90;69.38
7668;BME280;3876;42.204;24.686;2024-03-29T02:42:30;99204.75;;;12.87;69.01
7668;BME280;3876;42.204;24.686;2024-03-29T02:44:56;99215.94;;;13.06;67.71
7668;BME280;3876;42.204;24.686;2024-03-29T02:47:23;99212.88;;;13.18;67.30
7668;BME280;3876;42.204;24.686;2024-03-29T02:49:50;99219.16;;;13.31;66.46
7668;BME280;3876;42.204;24.686;2024-03-29T02:52:16;99224.06;;;13.37;65.89
7668;BME280;3876;42.204;24.686;2024-03-29T02:54:42;99226.97;;;13.48;65.78
7668;BME280;3876;42.204;24.686;2024-03-29T02:57:08;99229.25;;;13.54;65.65
7668;BME280;3876;42.204;24.686;2024-03-29T02:59:36;99237.56;;;13.61;65.32
7668;BME280;3876;42.204;24.686;2024-03-29T03:02:02;99239.03;;;13.66;64.92
7668;BME280;3876;42.204;24.686;2024-03-29T03:04:28;99239.78;;;13.68;64.78
7668;BME280;3876;42.204;24.686;2024-03-29T03:06:54;99247.03;;;13.79;64.21
7668;BME280;3876;42.204;24.686;2024-03-29T03:09:31;99259.56;;;13.87;64.02
7668;BME280;3876;42.204;24.686;2024-03-29T03:12:15;99261.94;;;13.91;63.73
7668;BME280;3876;42.204;24.686;2024-03-29T03:14:43;99266.94;;;13.94;64.31
7668;BME280;3876;42.204;24.686;2024-03-29T03:17:10;99258.47;;;13.92;64.19
7668;BME280;3876;42.204;24.686;2024-03-29T03:19:36;99282.06;;;14.02;64.23
7668;BME280;3876;42.204;24.686;2024-03-29T03:22:03;99279.75;;;13.96;64.19
7668;BME280;3876;42.204;24.686;2024-03-29T03:24:28;99284.66;;;14.02;63.94
7668;BME280;3876;42.204;24.686;2024-03-29T03:26:55;99283.25;;;13.95;64.11
7668;BME280;3876;42.204;24.686;2024-03-29T03:29:21;99291.88;;;13.94;64.80
7668;BME280;3876;42.204;24.686;2024-03-29T03:31:49;99286.16;;;13.87;65.22
7668;BME280;3876;42.204;24.686;2024-03-29T03:34:15;99291.66;;;13.80;65.93
7668;BME280;3876;42.204;24.686;2024-03-29T03:36:41;99296.94;;;13.77;65.98
7668;BME280;3876;42.204;24.686;2024-03-29T03:39:07;99303.06;;;13.74;65.51
7668;BME280;3876;42.204;24.686;2024-03-29T03:41:34;99316.03;;;13.73;64.98
7668;BME280;3876;42.204;24.686;2024-03-29T03:43:59;99307.19;;;13.78;65.08
7668;BME280;3876;42.204;24.686;2024-03-29T03:46:26;99315.75;;;13.79;64.91
7668;BME280;3876;42.204;24.686;2024-03-29T03:48:53;99328.66;;;13.79;64.91
7668;BME280;3876;42.204;24.686;2024-03-29T03:51:20;99334.56;;;13.81;65.03
7668;BME280;3876;42.204;24.686;2024-03-29T03:53:45;99338.81;;;13.82;65.03
7668;BME280;3876;42.204;24.686;2024-03-29T03:56:12;99328.94;;;13.73;66.50
7668;BME280;3876;42.204;24.686;2024-03-29T03:58:38;99332.66;;;13.65;66.64
7668;BME280;3876;42.204;24.686;2024-03-29T04:01:05;99318.78;;;13.49;66.95
7668;BME280;3876;42.204;24.686;2024-03-29T04:03:31;99328.56;;;13.41;67.93
7668;BME280;3876;42.204;24.686;2024-03-29T04:06:02;99341.31;;;13.24;69.18
7668;BME280;3876;42.204;24.686;2024-03-29T04:08:28;99346.72;;;13.18;69.37
7668;BME280;3876;42.204;24.686;2024-03-29T04:10:55;99358.81;;;13.16;69.19
7668;BME280;3876;42.204;24.686;2024-03-29T04:13:21;99366.75;;;13.11;70.03
7668;BME280;3876;42.204;24.686;2024-03-29T04:15:48;99362.63;;;13.06;70.19
7668;BME280;3876;42.204;24.686;2024-03-29T04:18:14;99367.91;;;13.03;70.10
7668;BME280;3876;42.204;24.686;2024-03-29T04:20:41;99369.59;;;13.04;69.91
7668;BME280;3876;42.204;24.686;2024-03-29T04:23:08;99351.63;;;13.02;69.95
7668;BME280;3876;42.204;24.686;2024-03-29T04:25:34;99363.41;;;13.08;70.20
7668;BME280;3876;42.204;24.686;2024-03-29T04:28:00;99364.28;;;13.08;70.46
7668;BME280;3876;42.204;24.686;2024-03-29T04:30:27;99372.03;;;13.07;70.84
7668;BME280;3876;42.204;24.686;2024-03-29T04:32:53;99372.81;;;13.09;71.45
7668;BME280;3876;42.204;24.686;2024-03-29T04:35:20;99378.19;;;13.03;72.00
7668;BME280;3876;42.204;24.686;2024-03-29T04:37:45;99396.78;;;13.11;71.66
7668;BME280;3876;42.204;24.686;2024-03-29T04:40:14;99377.97;;;13.09;70.97
7668;BME280;3876;42.204;24.686;2024-03-29T04:42:40;99402.28;;;13.24;70.33
7668;BME280;3876;42.204;24.686;2024-03-29T04:45:07;99400.03;;;13.36;69.69
7668;BME280;3876;42.204;24.686;2024-03-29T04:47:34;99386.88;;;13.42;69.04
7668;BME280;3876;42.204;24.686;2024-03-29T04:50:01;99408.38;;;13.61;68.74
7668;BME280;3876;42.204;24.686;2024-03-29T04:52:28;99411.63;;;13.66;68.74
7668;BME280;3876;42.204;24.686;2024-03-29T04:54:54;99399.25;;;13.75;68.59
7668;BME280;3876;42.204;24.686;2024-03-29T04:57:22;99405.03;;;13.80;68.37
7668;BME280;3876;42.204;24.686;2024-03-29T04:59:49;99394.25;;;13.90;67.92
7668;BME280;3876;42.204;24.686;2024-03-29T05:02:16;99401.53;;;14.01;67.38
7668;BME280;3876;42.204;24.686;2024-03-29T05:04:42;99414.00;;;14.10;67.18
7668;BME280;3876;42.204;24.686;2024-03-29T05:07:09;99404.25;;;14.16;67.59
7668;BME280;3876;42.204;24.686;2024-03-29T05:09:36;99415.66;;;14.31;67.67
7668;BME280;3876;42.204;24.686;2024-03-29T05:12:03;99409.66;;;14.49;67.10
7668;BME280;3876;42.204;24.686;2024-03-29T05:14:31;99432.19;;;14.64;67.05
7668;BME280;3876;42.204;24.686;2024-03-29T05:16:58;99425.19;;;14.85;66.47
7668;BME280;3876;42.204;24.686;2024-03-29T05:19:24;99430.75;;;14.95;66.34
7668;BME280;3876;42.204;24.686;2024-03-29T05:21:51;99436.78;;;15.12;66.69
7668;BME280;3876;42.204;24.686;2024-03-29T05:24:18;99437.53;;;15.32;65.54
7668;BME280;3876;42.204;24.686;2024-03-29T05:26:44;99436.28;;;15.40;66.07
7668;BME280;3876;42.204;24.686;2024-03-29T05:29:11;99442.41;;;15.56;65.35
7668;BME280;3876;42.204;24.686;2024-03-29T05:31:39;99446.03;;;15.69;65.39
7668;BME280;3876;42.204;24.686;2024-03-29T05:34:07;99443.13;;;15.93;64.71
7668;BME280;3876;42.204;24.686;2024-03-29T05:36:33;99450.69;;;16.13;63.26
7668;BME280;3876;42.204;24.686;2024-03-29T05:39:01;99437.41;;;16.19;63.52
7668;BME280;3876;42.204;24.686;2024-03-29T05:41:29;99460.47;;;16.56;62.73
7668;BME280;3876;42.204;24.686;2024-03-29T05:43:57;99462.66;;;16.79;62.37
7668;BME280;3876;42.204;24.686;2024-03-29T05:46:23;99457.97;;;17.02;61.93
7668;BME280;3876;42.204;24.686;2024-03-29T05:48:51;99472.31;;;17.23;61.26
7668;BME280;3876;42.204;24.686;2024-03-29T05:51:18;99474.63;;;17.43;60.10
7668;BME280;3876;42.204;24.686;2024-03-29T05:53:45;99476.19;;;17.61;60.81
7668;BME280;3876;42.204;24.686;2024-03-29T05:56:12;99466.78;;;17.74;60.47
7668;BME280;3876;42.204;24.686;2024-03-29T05:58:38;99477.38;;;18.00;59.56
7668;BME280;3876;42.204;24.686;2024-03-29T06:01:05;99478.88;;;18.04;60.11
7668;BME280;3876;42.204;24.686;2024-03-29T06:03:32;99476.28;;;18.18;60.35
7668;BME280;3876;42.204;24.686;2024-03-29T06:06:00;99477.78;;;18.36;58.70
7668;BME280;3876;42.204;24.686;2024-03-29T06:08:26;99481.28;;;18.49;57.77
7668;BME280;3876;42.204;24.686;2024-03-29T06:10:53;99464.03;;;18.48;57.30
7668;BME280;3876;42.204;24.686;2024-03-29T06:13:20;99484.84;;;18.76;57.38
7668;BME280;3876;42.204;24.686;2024-03-29T06:16:04;99482.00;;;18.94;56.20
7668;BME280;3876;42.204;24.686;2024-03-29T06:18:48;99479.56;;;19.05;54.65
7668;BME280;3876;42.204;24.686;2024-03-29T06:21:16;99489.75;;;19.08;55.34
7668;BME280;3876;42.204;24.686;2024-03-29T06:23:43;99487.97;;;19.22;55.92
7668;BME280;3876;42.204;24.686;2024-03-29T06:26:09;99482.59;;;19.38;56.81
7668;BME280;3876;42.204;24.686;2024-03-29T06:28:36;99491.75;;;19.58;53.45
7668;BME280;3876;42.204;24.686;2024-03-29T06:31:03;99497.69;;;19.72;54.25
7668;BME280;3876;42.204;24.686;2024-03-29T06:33:30;99490.03;;;19.83;52.95
7668;BME280;3876;42.204;24.686;2024-03-29T06:35:56;99498.75;;;19.82;53.26
7668;BME280;3876;42.204;24.686;2024-03-29T06:38:24;99508.34;;;19.95;52.84
7668;BME280;3876;42.204;24.686;2024-03-29T06:40:51;99508.34;;;19.95;51.51
7668;BME280;3876;42.204;24.686;2024-03-29T06:43:18;99500.25;;;19.99;52.38
7668;BME280;3876;42.204;24.686;2024-03-29T06:45:44;99503.13;;;19.95;51.57
7668;BME280;3876;42.204;24.686;2024-03-29T06:48:11;99500.66;;;19.93;51.65
7668;BME280;3876;42.204;24.686;2024-03-29T06:50:38;99511.28;;;20.03;51.63
7668;BME280;3876;42.204;24.686;2024-03-29T06:53:05;99511.28;;;20.15;50.90
7668;BME280;3876;42.204;24.686;2024-03-29T06:55:35;99514.63;;;20.30;51.77
7668;BME280;3876;42.204;24.686;2024-03-29T06:58:02;99525.03;;;20.42;51.23
7668;BME280;3876;42.204;24.686;2024-03-29T07:00:29;99532.56;;;20.47;51.73
7668;BME280;3876;42.204;24.686;2024-03-29T07:02:56;99527.34;;;20.47;51.32
7668;BME280;3876;42.204;24.686;2024-03-29T07:05:23;99534.31;;;20.59;50.39
7668;BME280;3876;42.204;24.686;2024-03-29T07:07:49;99535.06;;;20.61;49.21
7668;BME280;3876;42.204;24.686;2024-03-29T07:10:16;99538.16;;;20.66;50.41
7668;BME280;3876;42.204;24.686;2024-03-29T07:12:44;99548.97;;;20.85;50.13
7668;BME280;3876;42.204;24.686;2024-03-29T07:15:11;99550.22;;;20.92;49.62
7668;BME280;3876;42.204;24.686;2024-03-29T07:17:37;99540.81;;;21.03;47.84
7668;BME280;3876;42.204;24.686;2024-03-29T07:20:06;99554.56;;;21.05;48.33
7668;BME280;3876;42.204;24.686;2024-03-29T07:22:33;99540.66;;;21.17;48.98
7668;BME280;3876;42.204;24.686;2024-03-29T07:25:00;99566.88;;;21.39;47.42
7668;BME280;3876;42.204;24.686;2024-03-29T07:27:27;99566.16;;;21.37;47.02
7668;BME280;3876;42.204;24.686;2024-03-29T07:29:59;99572.00;;;21.40;48.41
7668;BME280;3876;42.204;24.686;2024-03-29T07:32:26;99565.88;;;21.53;48.17
7668;BME280;3876;42.204;24.686;2024-03-29T07:34:52;99562.50;;;21.63;47.49
7668;BME280;3876;42.204;24.686;2024-03-29T07:37:22;99565.75;;;21.90;47.60
7668;BME280;3876;42.204;24.686;2024-03-29T07:39:48;99564.09;;;22.01;48.24
7668;BME280;3876;42.204;24.686;2024-03-29T07:42:15;99570.44;;;22.09;47.48
7668;BME280;3876;42.204;24.686;2024-03-29T07:44:42;99576.50;;;22.21;47.88
7668;BME280;3876;42.204;24.686;2024-03-29T07:47:10;99579.84;;;22.34;48.10
7668;BME280;3876;42.204;24.686;2024-03-29T07:49:38;99562.50;;;22.33;46.86
7668;BME280;3876;42.204;24.686;2024-03-29T07:52:05;99586.06;;;22.55;47.16
7668;BME280;3876;42.204;24.686;2024-03-29T07:54:34;99594.16;;;22.63;46.10
7668;BME280;3876;42.204;24.686;2024-03-29T07:57:00;99585.38;;;22.64;46.12
7668;BME280;3876;42.204;24.686;2024-03-29T07:59:27;99581.09;;;22.63;45.87
7668;BME280;3876;42.204;24.686;2024-03-29T08:01:54;99572.31;;;22.75;45.04
7668;BME280;3876;42.204;24.686;2024-03-29T08:04:24;99583.38;;;22.68;45.49
7668;BME280;3876;42.204;24.686;2024-03-29T08:06:51;99586.34;;;22.85;45.86
7668;BME280;3876;42.204;24.686;2024-03-29T08:09:18;99582.06;;;23.07;46.16
7668;BME280;3876;42.204;24.686;2024-03-29T08:11:45;99573.00;;;23.22;46.50
7668;BME280;3876;42.204;24.686;2024-03-29T08:14:11;99569.66;;;23.42;45.93
7668;BME280;3876;42.204;24.686;2024-03-29T08:16:38;99567.28;;;23.39;44.19
7668;BME280;3876;42.204;24.686;2024-03-29T08:19:05;99568.09;;;23.50;43.92
7668;BME280;3876;42.204;24.686;2024-03-29T08:21:33;99565.72;;;23.47;47.30
7668;BME280;3876;42.204;24.686;2024-03-29T08:24:01;99571.03;;;23.68;46.23
7668;BME280;3876;42.204;24.686;2024-03-29T08:26:29;99573.41;;;23.60;42.57
7668;BME280;3876;42.204;24.686;2024-03-29T08:28:56;99577.44;;;23.64;44.28
7668;BME280;3876;42.204;24.686;2024-03-29T08:31:23;99592.47;;;23.83;44.31
7668;BME280;3876;42.204;24.686;2024-03-29T08:33:50;99585.03;;;23.99;43.83
7668;BME280;3876;42.204;24.686;2024-03-29T08:36:17;99582.31;;;24.00;43.39
7668;BME280;3876;42.204;24.686;2024-03-29T08:38:45;99578.44;;;24.16;46.32
7668;BME280;3876;42.204;24.686;2024-03-29T08:41:12;99589.81;;;24.26;43.18
7668;BME280;3876;42.204;24.686;2024-03-29T08:43:40;99592.81;;;24.42;44.90
7668;BME280;3876;42.204;24.686;2024-03-29T08:46:06;99582.97;;;24.55;43.66
7668;BME280;3876;42.204;24.686;2024-03-29T08:48:34;99579.34;;;24.56;42.72
7668;BME280;3876;42.204;24.686;2024-03-29T08:51:01;99582.97;;;24.55;42.40
7668;BME280;3876;42.204;24.686;2024-03-29T08:53:28;99585.47;;;24.66;42.76
7668;BME280;3876;42.204;24.686;2024-03-29T08:55:56;99584.94;;;24.72;43.70
7668;BME280;3876;42.204;24.686;2024-03-29T08:58:23;99583.88;;;24.75;43.39
7668;BME280;3876;42.204;24.686;2024-03-29T09:00:53;99581.53;;;25.02;43.00
7668;BME280;3876;42.204;24.686;2024-03-29T09:03:21;99573.81;;;25.00;42.01
7668;BME280;3876;42.204;24.686;2024-03-29T09:05:48;99581.56;;;25.21;42.94
7668;BME280;3876;42.204;24.686;2024-03-29T09:08:15;99579.41;;;25.36;42.42
7668;BME280;3876;42.204;24.686;2024-03-29T09:10:41;99573.66;;;25.51;43.36
7668;BME280;3876;42.204;24.686;2024-03-29T09:13:09;99574.03;;;25.47;40.63
7668;BME280;3876;42.204;24.686;2024-03-29T09:15:36;99564.28;;;25.58;42.34
7668;BME280;3876;42.204;24.686;2024-03-29T09:18:03;99569.66;;;25.76;41.66
7668;BME280;3876;42.204;24.686;2024-03-29T09:20:36;99553.50;;;25.71;41.65
7668;BME280;3876;42.204;24.686;2024-03-29T09:23:03;99563.72;;;25.93;40.58
7668;BME280;3876;42.204;24.686;2024-03-29T09:25:30;99521.16;;;25.80;42.61
7668;BME280;3876;42.204;24.686;2024-03-29T09:27:57;99567.00;;;26.24;42.76
7668;BME280;3876;42.204;24.686;2024-03-29T09:30:25;99562.53;;;26.44;40.67
7668;BME280;3876;42.204;24.686;2024-03-29T09:32:52;99558.03;;;26.63;39.74
7668;BME280;3876;42.204;24.686;2024-03-29T09:35:19;99546.22;;;26.40;37.72
7668;BME280;3876;42.204;24.686;2024-03-29T09:37:45;99548.16;;;26.48;39.36
7668;BME280;3876;42.204;24.686;2024-03-29T09:40:13;99545.88;;;26.62;38.25
7668;BME280;3876;42.204;24.686;2024-03-29T09:42:43;99552.78;;;26.63;36.97
7668;BME280;3876;42.204;24.686;2024-03-29T09:45:11;99544.19;;;26.71;38.38
7668;BME280;3876;42.204;24.686;2024-03-29T09:47:39;99543.59;;;26.77;36.86
7668;BME280;3876;42.204;24.686;2024-03-29T09:50:08;99535.53;;;26.88;38.49
7668;BME280;3876;42.204;24.686;2024-03-29T09:52:36;99531.66;;;26.92;36.57
7668;BME280;3876;42.204;24.686;2024-03-29T09:55:04;99529.13;;;27.00;37.52
7668;BME280;3876;42.204;24.686;2024-03-29T09:57:32;99529.91;;;27.10;36.48
7668;BME280;3876;42.204;24.686;2024-03-29T09:59:59;99531.53;;;27.11;37.51
7668;BME280;3876;42.204;24.686;2024-03-29T10:02:28;99529.00;;;27.20;37.44
7668;BME280;3876;42.204;24.686;2024-03-29T10:05:00;99528.94;;;27.29;37.96
7668;BME280;3876;42.204;24.686;2024-03-29T10:07:29;99522.16;;;27.27;35.85
7668;BME280;3876;42.204;24.686;2024-03-29T10:09:57;99530.63;;;27.21;36.75
7668;BME280;3876;42.204;24.686;2024-03-29T10:12:24;99516.38;;;27.23;35.44
7668;BME280;3876;42.204;24.686;2024-03-29T10:14:51;99512.16;;;27.30;34.09
7668;BME280;3876;42.204;24.686;2024-03-29T10:17:20;99513.06;;;27.39;34.73
7668;BME280;3876;42.204;24.686;2024-03-29T10:19:47;99512.19;;;27.48;34.65
7668;BME280;3876;42.204;24.686;2024-03-29T10:22:15;99505.47;;;27.36;32.77
7668;BME280;3876;42.204;24.686;2024-03-29T10:24:42;99498.25;;;27.38;34.58
7668;BME280;3876;42.204;24.686;2024-03-29T10:27:09;99496.63;;;27.54;31.02
7668;BME280;3876;42.204;24.686;2024-03-29T10:29:36;99482.47;;;27.55;35.47
7668;BME280;3876;42.204;24.686;2024-03-29T10:32:03;99470.81;;;27.58;33.07
7668;BME280;3876;42.204;24.686;2024-03-29T10:34:30;99476.44;;;27.63;30.74
7668;BME280;3876;42.204;24.686;2024-03-29T10:37:00;99472.69;;;27.66;32.36
7668;BME280;3876;42.204;24.686;2024-03-29T10:39:30;99476.38;;;27.55;32.70
7668;BME280;3876;42.204;24.686;2024-03-29T10:41:59;99460.50;;;27.47;33.11
7668;BME280;3876;42.204;24.686;2024-03-29T10:44:28;99459.44;;;27.57;33.73
7668;BME280;3876;42.204;24.686;2024-03-29T10:46:56;99459.81;;;27.62;34.25
7668;BME280;3876;42.204;24.686;2024-03-29T10:49:23;99454.69;;;27.61;33.06
7668;BME280;3876;42.204;24.686;2024-03-29T10:51:50;99444.28;;;27.77;33.67
7668;BME280;3876;42.204;24.686;2024-03-29T10:54:17;99436.25;;;27.87;32.96
7668;BME280;3876;42.204;24.686;2024-03-29T10:56:47;99432.50;;;27.89;34.20
7668;BME280;3876;42.204;24.686;2024-03-29T10:59:21;99449.84;;;28.00;30.55
7668;BME280;3876;42.204;24.686;2024-03-29T11:01:52;99439.72;;;27.87;29.42
7668;BME280;3876;42.204;24.686;2024-03-29T11:04:22;99435.91;;;27.82;31.85
7668;BME280;3876;42.204;24.686;2024-03-29T11:06:54;99427.13;;;27.73;31.51
7668;BME280;3876;42.204;24.686;2024-03-29T11:09:28;99426.88;;;27.84;32.17
7668;BME280;3876;42.204;24.686;2024-03-29T11:11:58;99432.69;;;27.70;30.86
7668;BME280;3876;42.204;24.686;2024-03-29T11:14:35;99426.50;;;27.79;32.55
7668;BME280;3876;42.204;24.686;2024-03-29T11:17:03;99424.22;;;27.84;30.92
7668;BME280;3876;42.204;24.686;2024-03-29T11:19:30;99410.16;;;28.01;34.17
7668;BME280;3876;42.204;24.686;2024-03-29T11:21:58;99405.47;;;28.13;33.40
7668;BME280;3876;42.204;24.686;2024-03-29T11:24:26;99407.81;;;28.16;31.75
7668;BME280;3876;42.204;24.686;2024-03-29T11:26:54;99405.56;;;28.03;30.63
7668;BME280;3876;42.204;24.686;2024-03-29T11:29:22;99400.88;;;27.89;30.63
7668;BME280;3876;42.204;24.686;2024-03-29T11:31:56;99400.56;;;27.92;32.94
7668;BME280;3876;42.204;24.686;2024-03-29T11:34:23;99391.34;;;27.96;30.76
7668;BME280;3876;42.204;24.686;2024-03-29T11:36:49;99395.19;;;27.76;30.00
7668;BME280;3876;42.204;24.686;2024-03-29T11:39:20;99389.97;;;27.41;30.20
7668;BME280;3876;42.204;24.686;2024-03-29T11:41:47;99397.53;;;27.36;30.90
7668;BME280;3876;42.204;24.686;2024-03-29T11:44:14;99389.91;;;27.50;31.19
7668;BME280;3876;42.204;24.686;2024-03-29T11:46:42;99399.34;;;27.79;33.91
7668;BME280;3876;42.204;24.686;2024-03-29T11:49:10;99396.28;;;27.91;34.58
7668;BME280;3876;42.204;24.686;2024-03-29T11:51:36;99388.28;;;27.75;29.57
7668;BME280;3876;42.204;24.686;2024-03-29T11:54:03;99396.13;;;27.93;30.83
7668;BME280;3876;42.204;24.686;2024-03-29T11:56:30;99408.53;;;27.75;29.41
7668;BME280;3876;42.204;24.686;2024-03-29T11:58:57;99398.88;;;27.83;29.53
7668;BME280;3876;42.204;24.686;2024-03-29T12:01:25;99385.25;;;27.96;31.40
7668;BME280;3876;42.204;24.686;2024-03-29T12:03:55;99389.00;;;28.11;30.60
7668;BME280;3876;42.204;24.686;2024-03-29T12:06:22;99379.91;;;28.05;32.62
7668;BME280;3876;42.204;24.686;2024-03-29T12:08:49;99383.88;;;28.09;29.39
7668;BME280;3876;42.204;24.686;2024-03-29T12:11:18;99379.47;;;27.92;31.05
7668;BME280;3876;42.204;24.686;2024-03-29T12:13:45;99377.84;;;27.91;30.85
7668;BME280;3876;42.204;24.686;2024-03-29T12:16:12;99366.78;;;27.88;30.50
7668;BME280;3876;42.204;24.686;2024-03-29T12:18:39;99379.84;;;27.97;29.84
7668;BME280;3876;42.204;24.686;2024-03-29T12:21:07;99365.44;;;28.09;29.61
7668;BME280;3876;42.204;24.686;2024-03-29T12:23:35;99361.38;;;28.23;30.60
7668;BME280;3876;42.204;24.686;2024-03-29T12:26:02;99366.78;;;28.22;29.26
7668;BME280;3876;42.204;24.686;2024-03-29T12:28:29;99364.47;;;28.19;29.96
7668;BME280;3876;42.204;24.686;2024-03-29T12:30:59;99364.69;;;27.99;29.77
7668;BME280;3876;42.204;24.686;2024-03-29T12:33:26;99368.84;;;27.76;29.52
7668;BME280;3876;42.204;24.686;2024-03-29T12:35:54;99362.25;;;27.72;30.41
7668;BME280;3876;42.204;24.686;2024-03-29T12:38:23;99355.31;;;27.71;29.62
7668;BME280;3876;42.204;24.686;2024-03-29T12:40:51;99359.00;;;27.78;30.69
7668;BME280;3876;42.204;24.686;2024-03-29T12:43:20;99360.31;;;27.82;31.00
7668;BME280;3876;42.204;24.686;2024-03-29T12:45:48;99357.88;;;27.89;32.14
7668;BME280;3876;42.204;24.686;2024-03-29T12:48:17;99351.59;;;27.82;32.01
7668;BME280;3876;42.204;24.686;2024-03-29T12:50:45;99359.34;;;27.57;31.52
7668;BME280;3876;42.204;24.686;2024-03-29T12:53:12;99361.84;;;27.59;31.65
7668;BME280;3876;42.204;24.686;2024-03-29T12:55:41;99365.44;;;27.58;31.62
7668;BME280;3876;42.204;24.686;2024-03-29T12:58:11;99347.25;;;27.47;31.74
7668;BME280;3876;42.204;24.686;2024-03-29T13:00:38;99358.78;;;27.46;31.64
7668;BME280;3876;42.204;24.686;2024-03-29T13:03:05;99360.94;;;27.50;31.42
7668;BME280;3876;42.204;24.686;2024-03-29T13:05:32;99358.53;;;27.57;31.04
7668;BME280;3876;42.204;24.686;2024-03-29T13:08:03;99355.84;;;27.49;31.37
7668;BME280;3876;42.204;24.686;2024-03-29T13:10:30;99356.31;;;27.27;31.62